sensor_id;sensor_type;location;lat;lon;timestamp;P1;durP1;ratioP1;P2;durP2;ratioP2
39448;SDS011;25151;45.566;9.382;2023-07-16T00:00:14;4.65;;;2.33;;
39448;SDS011;25151;45.566;9.382;2023-07-16T00:02:44;3.22;;;2.10;;
39448;SDS011;25151;45.566;9.382;2023-07-16T00:05:12;5.70;;;2.33;;
39448;SDS011;25151;45.566;9.382;2023-07-16T00:07:38;3.08;;;2.10;;
39448;SDS011;25151;45.566;9.382;2023-07-16T00:10:08;4.45;;;2.40;;
39448;SDS011;25151;45.566;9.382;2023-07-16T00:12:43;3.17;;;1.83;;
39448;SDS011;25151;45.566;9.382;2023-07-16T00:15:12;3.72;;;2.00;;
39448;SDS011;25151;45.566;9.382;2023-07-16T00:17:45;2.85;;;2.10;;
39448;SDS011;25151;45.566;9.382;2023-07-16T00:20:17;4.15;;;2.30;;
39448;SDS011;25151;45.566;9.382;2023-07-16T00:22:50;4.15;;;2.30;;
39448;SDS011;25151;45.566;9.382;2023-07-16T00:27:54;2.65;;;2.05;;
39448;SDS011;25151;45.566;9.382;2023-07-16T00:30:23;2.58;;;2.08;;
39448;SDS011;25151;45.566;9.382;2023-07-16T00:32:51;4.20;;;2.17;;
39448;SDS011;25151;45.566;9.382;2023-07-16T00:35:23;3.20;;;2.00;;
39448;SDS011;25151;45.566;9.382;2023-07-16T00:37:53;4.68;;;2.05;;
39448;SDS011;25151;45.566;9.382;2023-07-16T00:40:22;2.90;;;1.85;;
39448;SDS011;25151;45.566;9.382;2023-07-16T00:42:57;3.00;;;2.38;;
39448;SDS011;25151;45.566;9.382;2023-07-16T00:45:24;2.95;;;2.00;;
39448;SDS011;25151;45.566;9.382;2023-07-16T00:47:55;3.63;;;2.13;;
39448;SDS011;25151;45.566;9.382;2023-07-16T00:50:25;3.17;;;2.20;;
39448;SDS011;25151;45.566;9.382;2023-07-16T00:53:02;2.65;;;2.10;;
39448;SDS011;25151;45.566;9.382;2023-07-16T00:55:32;3.72;;;1.88;;
39448;SDS011;25151;45.566;9.382;2023-07-16T00:58:05;4.40;;;2.75;;
39448;SDS011;25151;45.566;9.382;2023-07-16T01:00:35;4.63;;;2.08;;
39448;SDS011;25151;45.566;9.382;2023-07-16T01:03:07;2.45;;;1.92;;
39448;SDS011;25151;45.566;9.382;2023-07-16T01:08:48;3.45;;;2.00;;
39448;SDS011;25151;45.566;9.382;2023-07-16T01:11:25;2.83;;;2.17;;
39448;SDS011;25151;45.566;9.382;2023-07-16T01:13:56;5.03;;;1.90;;
39448;SDS011;25151;45.566;9.382;2023-07-16T01:16:25;5.22;;;2.90;;
39448;SDS011;25151;45.566;9.382;2023-07-16T01:18:55;4.15;;;2.10;;
39448;SDS011;25151;45.566;9.382;2023-07-16T01:21:25;2.55;;;1.80;;
39448;SDS011;25151;45.566;9.382;2023-07-16T01:30:04;3.65;;;2.10;;
39448;SDS011;25151;45.566;9.382;2023-07-16T01:32:40;3.55;;;2.00;;
39448;SDS011;25151;45.566;9.382;2023-07-16T01:35:11;2.78;;;1.70;;
39448;SDS011;25151;45.566;9.382;2023-07-16T01:37:43;5.38;;;2.40;;
39448;SDS011;25151;45.566;9.382;2023-07-16T01:40:10;3.03;;;2.13;;
39448;SDS011;25151;45.566;9.382;2023-07-16T01:42:40;3.47;;;2.30;;
39448;SDS011;25151;45.566;9.382;2023-07-16T01:45:10;3.25;;;2.00;;
39448;SDS011;25151;45.566;9.382;2023-07-16T01:50:18;3.60;;;2.30;;
39448;SDS011;25151;45.566;9.382;2023-07-16T01:52:48;2.88;;;1.88;;
39448;SDS011;25151;45.566;9.382;2023-07-16T01:55:17;2.17;;;1.67;;
39448;SDS011;25151;45.566;9.382;2023-07-16T01:57:43;4.68;;;2.08;;
39448;SDS011;25151;45.566;9.382;2023-07-16T02:00:13;3.03;;;2.00;;
39448;SDS011;25151;45.566;9.382;2023-07-16T02:02:48;2.90;;;1.85;;
39448;SDS011;25151;45.566;9.382;2023-07-16T02:05:18;3.08;;;2.05;;
39448;SDS011;25151;45.566;9.382;2023-07-16T02:07:45;2.50;;;1.77;;
39448;SDS011;25151;45.566;9.382;2023-07-16T02:10:17;2.30;;;1.90;;
39448;SDS011;25151;45.566;9.382;2023-07-16T02:12:52;3.05;;;1.92;;
39448;SDS011;25151;45.566;9.382;2023-07-16T02:15:21;3.30;;;2.28;;
39448;SDS011;25151;45.566;9.382;2023-07-16T02:17:51;2.60;;;2.00;;
39448;SDS011;25151;45.566;9.382;2023-07-16T02:20:20;2.72;;;1.88;;
39448;SDS011;25151;45.566;9.382;2023-07-16T02:22:50;4.00;;;2.13;;
39448;SDS011;25151;45.566;9.382;2023-07-16T02:25:20;3.40;;;1.90;;
39448;SDS011;25151;45.566;9.382;2023-07-16T02:27:47;3.22;;;1.88;;
39448;SDS011;25151;45.566;9.382;2023-07-16T02:30:14;3.58;;;2.30;;
39448;SDS011;25151;45.566;9.382;2023-07-16T02:32:48;4.07;;;2.25;;
39448;SDS011;25151;45.566;9.382;2023-07-16T02:35:22;2.72;;;1.95;;
39448;SDS011;25151;45.566;9.382;2023-07-16T02:40:22;3.35;;;2.20;;
39448;SDS011;25151;45.566;9.382;2023-07-16T02:42:57;2.72;;;2.00;;
39448;SDS011;25151;45.566;9.382;2023-07-16T02:45:29;3.30;;;2.15;;
39448;SDS011;25151;45.566;9.382;2023-07-16T02:48:01;2.40;;;2.15;;
39448;SDS011;25151;45.566;9.382;2023-07-16T02:50:28;3.75;;;2.10;;
39448;SDS011;25151;45.566;9.382;2023-07-16T02:52:55;2.45;;;1.98;;
39448;SDS011;25151;45.566;9.382;2023-07-16T02:55:27;3.30;;;2.20;;
39448;SDS011;25151;45.566;9.382;2023-07-16T02:57:54;3.38;;;2.13;;
39448;SDS011;25151;45.566;9.382;2023-07-16T03:00:23;4.88;;;2.40;;
39448;SDS011;25151;45.566;9.382;2023-07-16T03:02:53;2.97;;;1.67;;
39448;SDS011;25151;45.566;9.382;2023-07-16T03:05:28;4.10;;;2.03;;
39448;SDS011;25151;45.566;9.382;2023-07-16T03:07:57;2.53;;;2.00;;
39448;SDS011;25151;45.566;9.382;2023-07-16T03:10:30;3.22;;;1.90;;
39448;SDS011;25151;45.566;9.382;2023-07-16T03:12:59;2.80;;;2.15;;
39448;SDS011;25151;45.566;9.382;2023-07-16T03:15:26;4.15;;;2.05;;
39448;SDS011;25151;45.566;9.382;2023-07-16T03:17:53;2.00;;;1.80;;
39448;SDS011;25151;45.566;9.382;2023-07-16T03:20:28;2.63;;;1.83;;
39448;SDS011;25151;45.566;9.382;2023-07-16T03:22:54;3.15;;;2.50;;
39448;SDS011;25151;45.566;9.382;2023-07-16T03:25:24;2.38;;;2.17;;
39448;SDS011;25151;45.566;9.382;2023-07-16T03:27:52;2.95;;;1.70;;
39448;SDS011;25151;45.566;9.382;2023-07-16T03:30:18;2.28;;;1.70;;
39448;SDS011;25151;45.566;9.382;2023-07-16T03:32:51;2.35;;;1.88;;
39448;SDS011;25151;45.566;9.382;2023-07-16T03:35:25;2.38;;;1.73;;
39448;SDS011;25151;45.566;9.382;2023-07-16T03:37:54;2.50;;;1.90;;
39448;SDS011;25151;45.566;9.382;2023-07-16T03:40:23;2.95;;;2.00;;
39448;SDS011;25151;45.566;9.382;2023-07-16T03:42:53;2.53;;;1.80;;
39448;SDS011;25151;45.566;9.382;2023-07-16T03:45:23;2.72;;;2.10;;
39448;SDS011;25151;45.566;9.382;2023-07-16T03:47:50;3.63;;;2.25;;
39448;SDS011;25151;45.566;9.382;2023-07-16T03:50:17;2.88;;;1.95;;
39448;SDS011;25151;45.566;9.382;2023-07-16T03:52:47;2.78;;;1.83;;
39448;SDS011;25151;45.566;9.382;2023-07-16T03:55:20;3.28;;;2.28;;
39448;SDS011;25151;45.566;9.382;2023-07-16T03:57:50;3.22;;;1.95;;
39448;SDS011;25151;45.566;9.382;2023-07-16T04:00:17;2.53;;;1.88;;
39448;SDS011;25151;45.566;9.382;2023-07-16T04:02:44;9.30;;;4.18;;
39448;SDS011;25151;45.566;9.382;2023-07-16T04:05:11;9.18;;;6.10;;
39448;SDS011;25151;45.566;9.382;2023-07-16T04:07:42;7.35;;;6.00;;
39448;SDS011;25151;45.566;9.382;2023-07-16T04:10:14;11.80;;;6.30;;
39448;SDS011;25151;45.566;9.382;2023-07-16T04:12:41;10.95;;;6.95;;
39448;SDS011;25151;45.566;9.382;2023-07-16T04:15:08;11.13;;;7.03;;
39448;SDS011;25151;45.566;9.382;2023-07-16T04:17:35;12.98;;;7.88;;
39448;SDS011;25151;45.566;9.382;2023-07-16T04:20:05;9.90;;;6.28;;
39448;SDS011;25151;45.566;9.382;2023-07-16T04:22:35;9.43;;;6.97;;
39448;SDS011;25151;45.566;9.382;2023-07-16T04:25:10;9.15;;;6.30;;
39448;SDS011;25151;45.566;9.382;2023-07-16T04:27:40;9.00;;;7.00;;
39448;SDS011;25151;45.566;9.382;2023-07-16T04:30:10;9.40;;;7.13;;
39448;SDS011;25151;45.566;9.382;2023-07-16T04:32:38;10.32;;;7.28;;
39448;SDS011;25151;45.566;9.382;2023-07-16T04:35:10;8.82;;;7.25;;
39448;SDS011;25151;45.566;9.382;2023-07-16T04:37:40;8.02;;;7.22;;
39448;SDS011;25151;45.566;9.382;2023-07-16T04:40:07;16.08;;;8.48;;
39448;SDS011;25151;45.566;9.382;2023-07-16T04:42:42;8.27;;;6.63;;
39448;SDS011;25151;45.566;9.382;2023-07-16T04:45:12;13.05;;;7.75;;
39448;SDS011;25151;45.566;9.382;2023-07-16T04:47:38;9.93;;;7.10;;
39448;SDS011;25151;45.566;9.382;2023-07-16T04:50:08;12.82;;;7.63;;
39448;SDS011;25151;45.566;9.382;2023-07-16T04:52:36;9.77;;;8.05;;
39448;SDS011;25151;45.566;9.382;2023-07-16T04:55:03;10.98;;;7.63;;
39448;SDS011;25151;45.566;9.382;2023-07-16T04:57:32;12.13;;;7.97;;
39448;SDS011;25151;45.566;9.382;2023-07-16T05:00:01;10.30;;;6.97;;
39448;SDS011;25151;45.566;9.382;2023-07-16T05:02:33;9.63;;;6.97;;
39448;SDS011;25151;45.566;9.382;2023-07-16T05:05:05;8.80;;;7.18;;
39448;SDS011;25151;45.566;9.382;2023-07-16T05:07:42;10.10;;;7.95;;
39448;SDS011;25151;45.566;9.382;2023-07-16T05:10:16;12.23;;;8.02;;
39448;SDS011;25151;45.566;9.382;2023-07-16T05:12:48;10.07;;;7.13;;
39448;SDS011;25151;45.566;9.382;2023-07-16T05:15:28;7.82;;;6.40;;
39448;SDS011;25151;45.566;9.382;2023-07-16T05:18:06;9.45;;;8.05;;
39448;SDS011;25151;45.566;9.382;2023-07-16T05:20:53;9.55;;;7.68;;
39448;SDS011;25151;45.566;9.382;2023-07-16T05:23:23;9.77;;;8.38;;
39448;SDS011;25151;45.566;9.382;2023-07-16T05:25:50;8.17;;;7.10;;
39448;SDS011;25151;45.566;9.382;2023-07-16T05:28:20;10.02;;;7.28;;
39448;SDS011;25151;45.566;9.382;2023-07-16T05:30:56;10.93;;;8.30;;
39448;SDS011;25151;45.566;9.382;2023-07-16T05:33:28;8.27;;;6.38;;
39448;SDS011;25151;45.566;9.382;2023-07-16T05:35:56;13.90;;;7.85;;
39448;SDS011;25151;45.566;9.382;2023-07-16T05:38:22;11.63;;;8.05;;
39448;SDS011;25151;45.566;9.382;2023-07-16T05:43:22;12.57;;;8.03;;
39448;SDS011;25151;45.566;9.382;2023-07-16T05:45:52;11.35;;;7.72;;
39448;SDS011;25151;45.566;9.382;2023-07-16T05:48:19;11.30;;;7.70;;
39448;SDS011;25151;45.566;9.382;2023-07-16T05:50:49;10.88;;;6.53;;
39448;SDS011;25151;45.566;9.382;2023-07-16T05:53:17;11.75;;;8.43;;
39448;SDS011;25151;45.566;9.382;2023-07-16T05:55:44;8.98;;;7.35;;
39448;SDS011;25151;45.566;9.382;2023-07-16T06:00:44;8.50;;;7.07;;
39448;SDS011;25151;45.566;9.382;2023-07-16T06:03:11;10.13;;;7.40;;
39448;SDS011;25151;45.566;9.382;2023-07-16T06:05:42;9.23;;;6.97;;
39448;SDS011;25151;45.566;9.382;2023-07-16T06:08:12;10.30;;;7.25;;
39448;SDS011;25151;45.566;9.382;2023-07-16T06:10:42;9.77;;;7.93;;
39448;SDS011;25151;45.566;9.382;2023-07-16T06:13:09;10.93;;;7.43;;
39448;SDS011;25151;45.566;9.382;2023-07-16T06:15:37;10.55;;;7.63;;
39448;SDS011;25151;45.566;9.382;2023-07-16T06:18:04;10.20;;;7.40;;
39448;SDS011;25151;45.566;9.382;2023-07-16T06:20:37;13.70;;;7.63;;
39448;SDS011;25151;45.566;9.382;2023-07-16T06:23:09;11.90;;;8.13;;
39448;SDS011;25151;45.566;9.382;2023-07-16T06:25:44;10.85;;;7.72;;
39448;SDS011;25151;45.566;9.382;2023-07-16T06:28:15;12.57;;;7.50;;
39448;SDS011;25151;45.566;9.382;2023-07-16T06:30:42;10.20;;;7.55;;
39448;SDS011;25151;45.566;9.382;2023-07-16T06:33:11;9.88;;;7.78;;
39448;SDS011;25151;45.566;9.382;2023-07-16T06:35:43;15.90;;;7.63;;
39448;SDS011;25151;45.566;9.382;2023-07-16T06:38:16;11.68;;;6.95;;
39448;SDS011;25151;45.566;9.382;2023-07-16T06:40:46;11.27;;;7.10;;
39448;SDS011;25151;45.566;9.382;2023-07-16T06:43:16;9.73;;;7.20;;
39448;SDS011;25151;45.566;9.382;2023-07-16T06:45:44;10.73;;;7.63;;
39448;SDS011;25151;45.566;9.382;2023-07-16T06:48:16;8.88;;;7.25;;
39448;SDS011;25151;45.566;9.382;2023-07-16T06:50:43;8.18;;;7.18;;
39448;SDS011;25151;45.566;9.382;2023-07-16T06:53:10;10.93;;;7.35;;
39448;SDS011;25151;45.566;9.382;2023-07-16T06:55:37;8.02;;;6.78;;
39448;SDS011;25151;45.566;9.382;2023-07-16T06:58:09;10.30;;;7.13;;
39448;SDS011;25151;45.566;9.382;2023-07-16T07:00:37;11.88;;;6.95;;
39448;SDS011;25151;45.566;9.382;2023-07-16T07:03:09;12.35;;;6.85;;
39448;SDS011;25151;45.566;9.382;2023-07-16T07:05:45;7.70;;;6.20;;
39448;SDS011;25151;45.566;9.382;2023-07-16T07:08:15;7.03;;;6.25;;
39448;SDS011;25151;45.566;9.382;2023-07-16T07:10:42;10.60;;;7.03;;
39448;SDS011;25151;45.566;9.382;2023-07-16T07:13:12;8.52;;;6.60;;
39448;SDS011;25151;45.566;9.382;2023-07-16T07:15:43;11.73;;;6.95;;
39448;SDS011;25151;45.566;9.382;2023-07-16T07:18:14;8.60;;;6.25;;
39448;SDS011;25151;45.566;9.382;2023-07-16T07:20:42;8.93;;;7.25;;
39448;SDS011;25151;45.566;9.382;2023-07-16T07:23:15;7.95;;;6.55;;
39448;SDS011;25151;45.566;9.382;2023-07-16T07:25:49;8.00;;;6.45;;
39448;SDS011;25151;45.566;9.382;2023-07-16T07:28:20;8.00;;;6.93;;
39448;SDS011;25151;45.566;9.382;2023-07-16T07:30:47;10.20;;;7.00;;
39448;SDS011;25151;45.566;9.382;2023-07-16T07:33:14;7.03;;;5.88;;
39448;SDS011;25151;45.566;9.382;2023-07-16T07:35:45;8.02;;;5.97;;
39448;SDS011;25151;45.566;9.382;2023-07-16T07:38:15;10.70;;;5.82;;
39448;SDS011;25151;45.566;9.382;2023-07-16T07:40:45;8.55;;;6.13;;
39448;SDS011;25151;45.566;9.382;2023-07-16T07:43:15;13.77;;;6.22;;
39448;SDS011;25151;45.566;9.382;2023-07-16T07:48:11;10.57;;;5.90;;
39448;SDS011;25151;45.566;9.382;2023-07-16T07:50:39;10.10;;;5.95;;
39448;SDS011;25151;45.566;9.382;2023-07-16T07:53:09;9.13;;;5.80;;
39448;SDS011;25151;45.566;9.382;2023-07-16T07:55:40;13.55;;;6.47;;
39448;SDS011;25151;45.566;9.382;2023-07-16T07:58:07;11.77;;;6.43;;
39448;SDS011;25151;45.566;9.382;2023-07-16T08:00:34;10.80;;;6.03;;
39448;SDS011;25151;45.566;9.382;2023-07-16T08:03:03;9.68;;;6.18;;
39448;SDS011;25151;45.566;9.382;2023-07-16T08:07:59;10.70;;;6.15;;
39448;SDS011;25151;45.566;9.382;2023-07-16T08:10:32;11.70;;;6.43;;
39448;SDS011;25151;45.566;9.382;2023-07-16T08:13:01;8.40;;;6.15;;
39448;SDS011;25151;45.566;9.382;2023-07-16T08:15:28;8.70;;;6.07;;
39448;SDS011;25151;45.566;9.382;2023-07-16T08:17:55;11.35;;;5.85;;
39448;SDS011;25151;45.566;9.382;2023-07-16T08:20:25;10.55;;;5.53;;
39448;SDS011;25151;45.566;9.382;2023-07-16T08:22:52;7.10;;;5.13;;
39448;SDS011;25151;45.566;9.382;2023-07-16T08:25:21;10.82;;;6.10;;
39448;SDS011;25151;45.566;9.382;2023-07-16T08:27:52;9.27;;;5.65;;
39448;SDS011;25151;45.566;9.382;2023-07-16T08:30:18;9.70;;;5.95;;
39448;SDS011;25151;45.566;9.382;2023-07-16T08:32:48;9.15;;;5.65;;
39448;SDS011;25151;45.566;9.382;2023-07-16T08:35:23;10.05;;;5.70;;
39448;SDS011;25151;45.566;9.382;2023-07-16T08:37:55;11.80;;;6.25;;
39448;SDS011;25151;45.566;9.382;2023-07-16T08:40:22;10.57;;;5.90;;
39448;SDS011;25151;45.566;9.382;2023-07-16T08:42:49;6.63;;;4.97;;
39448;SDS011;25151;45.566;9.382;2023-07-16T08:45:19;9.60;;;4.97;;
39448;SDS011;25151;45.566;9.382;2023-07-16T08:47:54;9.77;;;5.45;;
39448;SDS011;25151;45.566;9.382;2023-07-16T08:50:28;7.82;;;5.35;;
39448;SDS011;25151;45.566;9.382;2023-07-16T08:53:09;9.05;;;5.35;;
39448;SDS011;25151;45.566;9.382;2023-07-16T08:55:44;8.20;;;5.40;;
39448;SDS011;25151;45.566;9.382;2023-07-16T08:58:21;10.38;;;5.72;;
39448;SDS011;25151;45.566;9.382;2023-07-16T09:00:51;7.88;;;5.60;;
39448;SDS011;25151;45.566;9.382;2023-07-16T09:03:22;7.82;;;4.95;;
39448;SDS011;25151;45.566;9.382;2023-07-16T09:05:53;9.15;;;5.07;;
39448;SDS011;25151;45.566;9.382;2023-07-16T09:08:25;10.38;;;5.93;;
39448;SDS011;25151;45.566;9.382;2023-07-16T09:10:54;9.30;;;5.70;;
39448;SDS011;25151;45.566;9.382;2023-07-16T09:13:22;11.07;;;5.68;;
39448;SDS011;25151;45.566;9.382;2023-07-16T09:15:57;8.88;;;5.32;;
39448;SDS011;25151;45.566;9.382;2023-07-16T09:18:27;7.72;;;5.60;;
39448;SDS011;25151;45.566;9.382;2023-07-16T09:21:01;9.40;;;5.40;;
39448;SDS011;25151;45.566;9.382;2023-07-16T09:23:32;8.57;;;5.60;;
39448;SDS011;25151;45.566;9.382;2023-07-16T09:26:02;7.78;;;6.00;;
39448;SDS011;25151;45.566;9.382;2023-07-16T09:28:37;10.20;;;5.68;;
39448;SDS011;25151;45.566;9.382;2023-07-16T09:31:08;10.13;;;5.72;;
39448;SDS011;25151;45.566;9.382;2023-07-16T09:33:46;7.65;;;5.45;;
39448;SDS011;25151;45.566;9.382;2023-07-16T09:36:22;9.00;;;5.65;;
39448;SDS011;25151;45.566;9.382;2023-07-16T09:38:53;10.95;;;5.20;;
39448;SDS011;25151;45.566;9.382;2023-07-16T09:41:22;11.07;;;5.55;;
39448;SDS011;25151;45.566;9.382;2023-07-16T09:43:54;12.38;;;6.47;;
39448;SDS011;25151;45.566;9.382;2023-07-16T09:46:23;7.93;;;5.50;;
39448;SDS011;25151;45.566;9.382;2023-07-16T09:48:53;10.00;;;6.72;;
39448;SDS011;25151;45.566;9.382;2023-07-16T09:51:25;8.40;;;5.65;;
39448;SDS011;25151;45.566;9.382;2023-07-16T09:53:59;11.93;;;6.53;;
39448;SDS011;25151;45.566;9.382;2023-07-16T09:56:30;10.30;;;5.93;;
39448;SDS011;25151;45.566;9.382;2023-07-16T09:59:01;9.38;;;5.65;;
39448;SDS011;25151;45.566;9.382;2023-07-16T10:01:36;8.38;;;5.40;;
39448;SDS011;25151;45.566;9.382;2023-07-16T10:12:18;10.00;;;7.05;;
39448;SDS011;25151;45.566;9.382;2023-07-16T10:14:48;17.58;;;7.90;;
39448;SDS011;25151;45.566;9.382;2023-07-16T10:17:23;17.08;;;7.13;;
39448;SDS011;25151;45.566;9.382;2023-07-16T10:22:31;13.40;;;7.07;;
39448;SDS011;25151;45.566;9.382;2023-07-16T10:25:00;12.50;;;6.68;;
39448;SDS011;25151;45.566;9.382;2023-07-16T10:27:28;12.47;;;6.70;;
39448;SDS011;25151;45.566;9.382;2023-07-16T10:29:59;8.20;;;5.95;;
39448;SDS011;25151;45.566;9.382;2023-07-16T10:32:30;8.73;;;5.95;;
39448;SDS011;25151;45.566;9.382;2023-07-16T10:35:00;11.10;;;6.80;;
39448;SDS011;25151;45.566;9.382;2023-07-16T10:37:29;11.10;;;6.32;;
39448;SDS011;25151;45.566;9.382;2023-07-16T10:39:59;10.90;;;6.32;;
39448;SDS011;25151;45.566;9.382;2023-07-16T10:42:34;10.23;;;6.40;;
39448;SDS011;25151;45.566;9.382;2023-07-16T10:45:03;12.48;;;6.45;;
39448;SDS011;25151;45.566;9.382;2023-07-16T10:47:38;10.77;;;6.55;;
39448;SDS011;25151;45.566;9.382;2023-07-16T10:50:18;13.32;;;6.93;;
39448;SDS011;25151;45.566;9.382;2023-07-16T10:52:54;10.18;;;5.63;;
39448;SDS011;25151;45.566;9.382;2023-07-16T10:55:27;9.50;;;6.25;;
39448;SDS011;25151;45.566;9.382;2023-07-16T10:57:56;10.57;;;6.53;;
39448;SDS011;25151;45.566;9.382;2023-07-16T11:00:32;8.45;;;5.07;;
39448;SDS011;25151;45.566;9.382;2023-07-16T11:03:05;8.65;;;5.82;;
39448;SDS011;25151;45.566;9.382;2023-07-16T11:05:40;9.48;;;5.43;;
39448;SDS011;25151;45.566;9.382;2023-07-16T11:08:07;13.05;;;5.90;;
39448;SDS011;25151;45.566;9.382;2023-07-16T11:10:36;19.88;;;6.28;;
39448;SDS011;25151;45.566;9.382;2023-07-16T11:13:06;9.32;;;5.43;;
39448;SDS011;25151;45.566;9.382;2023-07-16T11:15:36;12.90;;;5.78;;
39448;SDS011;25151;45.566;9.382;2023-07-16T11:18:07;10.60;;;6.25;;
39448;SDS011;25151;45.566;9.382;2023-07-16T11:20:33;8.63;;;5.22;;
39448;SDS011;25151;45.566;9.382;2023-07-16T11:23:00;10.95;;;5.43;;
39448;SDS011;25151;45.566;9.382;2023-07-16T11:25:28;12.20;;;5.85;;
39448;SDS011;25151;45.566;9.382;2023-07-16T11:27:55;12.85;;;5.63;;
39448;SDS011;25151;45.566;9.382;2023-07-16T11:30:22;7.68;;;5.40;;
39448;SDS011;25151;45.566;9.382;2023-07-16T11:32:51;11.82;;;5.60;;
39448;SDS011;25151;45.566;9.382;2023-07-16T11:35:22;17.15;;;5.53;;
39448;SDS011;25151;45.566;9.382;2023-07-16T11:37:51;11.73;;;5.95;;
39448;SDS011;25151;45.566;9.382;2023-07-16T11:40:19;12.63;;;5.78;;
39448;SDS011;25151;45.566;9.382;2023-07-16T11:42:47;9.98;;;5.93;;
39448;SDS011;25151;45.566;9.382;2023-07-16T11:45:20;11.52;;;5.10;;
39448;SDS011;25151;45.566;9.382;2023-07-16T11:47:53;12.35;;;5.25;;
39448;SDS011;25151;45.566;9.382;2023-07-16T11:50:25;13.10;;;5.32;;
39448;SDS011;25151;45.566;9.382;2023-07-16T11:52:55;11.05;;;5.97;;
39448;SDS011;25151;45.566;9.382;2023-07-16T11:55:25;8.77;;;5.20;;
39448;SDS011;25151;45.566;9.382;2023-07-16T11:57:52;11.73;;;5.43;;
39448;SDS011;25151;45.566;9.382;2023-07-16T12:00:22;8.40;;;4.95;;
39448;SDS011;25151;45.566;9.382;2023-07-16T12:02:50;12.77;;;5.22;;
39448;SDS011;25151;45.566;9.382;2023-07-16T12:05:18;11.50;;;5.63;;
39448;SDS011;25151;45.566;9.382;2023-07-16T12:07:49;12.40;;;5.75;;
39448;SDS011;25151;45.566;9.382;2023-07-16T12:10:16;9.00;;;5.18;;
39448;SDS011;25151;45.566;9.382;2023-07-16T12:12:44;12.73;;;4.97;;
39448;SDS011;25151;45.566;9.382;2023-07-16T12:15:11;8.68;;;5.20;;
39448;SDS011;25151;45.566;9.382;2023-07-16T12:17:38;10.77;;;5.00;;
39448;SDS011;25151;45.566;9.382;2023-07-16T12:20:05;7.50;;;4.45;;
39448;SDS011;25151;45.566;9.382;2023-07-16T12:22:32;8.32;;;4.57;;
39448;SDS011;25151;45.566;9.382;2023-07-16T12:25:01;8.10;;;4.82;;
39448;SDS011;25151;45.566;9.382;2023-07-16T12:27:31;7.72;;;3.83;;
39448;SDS011;25151;45.566;9.382;2023-07-16T12:30:01;6.18;;;4.20;;
39448;SDS011;25151;45.566;9.382;2023-07-16T12:32:28;6.95;;;3.55;;
39448;SDS011;25151;45.566;9.382;2023-07-16T12:34:58;4.90;;;3.45;;
39448;SDS011;25151;45.566;9.382;2023-07-16T12:37:25;6.72;;;3.58;;
39448;SDS011;25151;45.566;9.382;2023-07-16T12:39:55;9.00;;;3.75;;
39448;SDS011;25151;45.566;9.382;2023-07-16T12:42:24;6.35;;;3.28;;
39448;SDS011;25151;45.566;9.382;2023-07-16T12:44:51;5.07;;;3.55;;
39448;SDS011;25151;45.566;9.382;2023-07-16T12:47:20;5.03;;;3.08;;
39448;SDS011;25151;45.566;9.382;2023-07-16T12:49:51;4.25;;;3.10;;
39448;SDS011;25151;45.566;9.382;2023-07-16T12:52:17;3.90;;;2.83;;
39448;SDS011;25151;45.566;9.382;2023-07-16T12:54:46;5.25;;;3.33;;
39448;SDS011;25151;45.566;9.382;2023-07-16T12:57:16;9.18;;;3.33;;
39448;SDS011;25151;45.566;9.382;2023-07-16T12:59:48;3.90;;;2.63;;
39448;SDS011;25151;45.566;9.382;2023-07-16T13:02:15;4.20;;;2.58;;
39448;SDS011;25151;45.566;9.382;2023-07-16T13:04:45;4.97;;;2.80;;
39448;SDS011;25151;45.566;9.382;2023-07-16T13:07:11;6.85;;;2.55;;
39448;SDS011;25151;45.566;9.382;2023-07-16T13:09:40;4.32;;;3.13;;
39448;SDS011;25151;45.566;9.382;2023-07-16T13:12:06;4.45;;;2.50;;
39448;SDS011;25151;45.566;9.382;2023-07-16T13:14:33;6.20;;;2.67;;
39448;SDS011;25151;45.566;9.382;2023-07-16T13:17:01;4.50;;;3.08;;
39448;SDS011;25151;45.566;9.382;2023-07-16T13:19:30;4.22;;;2.92;;
39448;SDS011;25151;45.566;9.382;2023-07-16T13:21:57;5.15;;;2.47;;
39448;SDS011;25151;45.566;9.382;2023-07-16T13:24:25;3.35;;;2.50;;
39448;SDS011;25151;45.566;9.382;2023-07-16T13:26:55;4.30;;;2.40;;
39448;SDS011;25151;45.566;9.382;2023-07-16T13:29:27;3.35;;;3.05;;
39448;SDS011;25151;45.566;9.382;2023-07-16T13:31:56;4.22;;;2.92;;
39448;SDS011;25151;45.566;9.382;2023-07-16T13:34:25;3.35;;;2.70;;
39448;SDS011;25151;45.566;9.382;2023-07-16T13:36:55;4.03;;;2.83;;
39448;SDS011;25151;45.566;9.382;2023-07-16T13:39:22;4.75;;;3.22;;
39448;SDS011;25151;45.566;9.382;2023-07-16T13:41:51;6.05;;;3.20;;
39448;SDS011;25151;45.566;9.382;2023-07-16T13:44:26;4.22;;;3.05;;
39448;SDS011;25151;45.566;9.382;2023-07-16T13:46:53;6.85;;;3.20;;
39448;SDS011;25151;45.566;9.382;2023-07-16T13:49:22;4.82;;;3.50;;
39448;SDS011;25151;45.566;9.382;2023-07-16T13:51:49;7.32;;;3.55;;
39448;SDS011;25151;45.566;9.382;2023-07-16T13:54:18;6.57;;;3.47;;
39448;SDS011;25151;45.566;9.382;2023-07-16T13:56:45;4.28;;;3.22;;
39448;SDS011;25151;45.566;9.382;2023-07-16T13:59:13;7.43;;;3.60;;
39448;SDS011;25151;45.566;9.382;2023-07-16T14:01:45;3.83;;;3.17;;
39448;SDS011;25151;45.566;9.382;2023-07-16T14:04:15;5.13;;;3.20;;
39448;SDS011;25151;45.566;9.382;2023-07-16T14:06:44;5.57;;;3.50;;
39448;SDS011;25151;45.566;9.382;2023-07-16T14:09:13;4.97;;;3.30;;
39448;SDS011;25151;45.566;9.382;2023-07-16T14:11:40;5.32;;;3.38;;
39448;SDS011;25151;45.566;9.382;2023-07-16T14:14:12;7.00;;;3.50;;
39448;SDS011;25151;45.566;9.382;2023-07-16T14:16:51;8.35;;;3.35;;
39448;SDS011;25151;45.566;9.382;2023-07-16T14:19:21;4.45;;;3.55;;
39448;SDS011;25151;45.566;9.382;2023-07-16T14:21:57;4.25;;;2.90;;
39448;SDS011;25151;45.566;9.382;2023-07-16T14:24:23;5.53;;;3.50;;
39448;SDS011;25151;45.566;9.382;2023-07-16T14:26:53;4.88;;;3.20;;
39448;SDS011;25151;45.566;9.382;2023-07-16T14:29:22;4.90;;;3.20;;
39448;SDS011;25151;45.566;9.382;2023-07-16T14:31:54;4.93;;;3.83;;
39448;SDS011;25151;45.566;9.382;2023-07-16T14:34:30;5.95;;;3.47;;
39448;SDS011;25151;45.566;9.382;2023-07-16T14:36:59;8.02;;;3.17;;
39448;SDS011;25151;45.566;9.382;2023-07-16T14:39:26;5.80;;;3.42;;
39448;SDS011;25151;45.566;9.382;2023-07-16T14:41:55;5.18;;;3.55;;
39448;SDS011;25151;45.566;9.382;2023-07-16T14:44:22;4.65;;;3.35;;
39448;SDS011;25151;45.566;9.382;2023-07-16T14:46:54;4.60;;;3.65;;
39448;SDS011;25151;45.566;9.382;2023-07-16T14:49:23;5.97;;;3.80;;
39448;SDS011;25151;45.566;9.382;2023-07-16T14:51:52;6.93;;;3.88;;
39448;SDS011;25151;45.566;9.382;2023-07-16T14:54:22;4.78;;;3.28;;
39448;SDS011;25151;45.566;9.382;2023-07-16T14:56:48;3.80;;;3.25;;
39448;SDS011;25151;45.566;9.382;2023-07-16T14:59:18;3.80;;;3.22;;
39448;SDS011;25151;45.566;9.382;2023-07-16T15:01:48;4.88;;;3.60;;
39448;SDS011;25151;45.566;9.382;2023-07-16T15:04:19;5.05;;;3.58;;
39448;SDS011;25151;45.566;9.382;2023-07-16T15:06:46;4.70;;;3.15;;
39448;SDS011;25151;45.566;9.382;2023-07-16T15:09:17;4.80;;;3.28;;
39448;SDS011;25151;45.566;9.382;2023-07-16T15:11:49;5.38;;;3.15;;
39448;SDS011;25151;45.566;9.382;2023-07-16T15:14:17;4.22;;;3.08;;
39448;SDS011;25151;45.566;9.382;2023-07-16T15:16:44;7.22;;;3.63;;
39448;SDS011;25151;45.566;9.382;2023-07-16T15:19:14;4.83;;;3.47;;
39448;SDS011;25151;45.566;9.382;2023-07-16T15:21:48;4.93;;;3.45;;
39448;SDS011;25151;45.566;9.382;2023-07-16T15:24:17;4.50;;;2.75;;
39448;SDS011;25151;45.566;9.382;2023-07-16T15:26:46;6.50;;;3.75;;
39448;SDS011;25151;45.566;9.382;2023-07-16T15:29:13;6.25;;;3.75;;
39448;SDS011;25151;45.566;9.382;2023-07-16T15:31:41;5.28;;;3.65;;
39448;SDS011;25151;45.566;9.382;2023-07-16T15:34:13;4.38;;;3.58;;
39448;SDS011;25151;45.566;9.382;2023-07-16T15:36:46;4.10;;;3.20;;